createdAt,value
2023-02-09T00:01:39.778Z,102372.25
2023-02-09T00:04:07.460Z,102370.75
2023-02-09T00:06:35.377Z,102370.19
2023-02-09T00:09:03.677Z,102373.03
2023-02-09T00:11:50.952Z,102377.50
2023-02-09T00:14:22.142Z,102375.28
2023-02-09T00:16:51.707Z,102379.03
2023-02-09T00:19:21.061Z,102367.06
2023-02-09T00:21:48.804Z,102373.50
2023-02-09T00:24:16.231Z,102365.72
2023-02-09T00:26:43.968Z,102355.53
2023-02-09T00:29:12.586Z,102353.72
2023-02-09T00:31:41.678Z,102357.00
2023-02-09T00:34:09.567Z,102361.81
2023-02-09T00:36:36.836Z,102356.75
2023-02-09T00:39:04.638Z,102346.69
2023-02-09T00:41:50.701Z,102345.22
2023-02-09T00:44:18.070Z,102336.81
2023-02-09T00:46:46.812Z,102344.19
2023-02-09T00:49:14.036Z,102346.16
2023-02-09T00:51:41.800Z,102337.00
2023-02-09T00:54:09.002Z,102334.63
2023-02-09T00:56:36.550Z,102335.34
2023-02-09T00:59:04.120Z,102338.06
2023-02-09T01:01:31.311Z,102339.09
2023-02-09T01:03:58.955Z,102327.44
2023-02-09T01:06:26.167Z,102334.16
2023-02-09T01:08:53.915Z,102338.06
2023-02-09T01:11:21.454Z,102346.16
2023-02-09T01:13:49.840Z,102335.50
2023-02-09T01:16:19.091Z,102331.31
2023-02-09T01:18:46.852Z,102328.31
2023-02-09T01:21:17.087Z,102326.66
2023-02-09T01:23:45.441Z,102318.31
2023-02-09T01:26:19.021Z,102309.19
2023-02-09T01:28:52.919Z,102303.63
2023-02-09T01:31:27.529Z,102304.09
2023-02-09T01:33:56.343Z,102318.03
2023-02-09T01:36:26.867Z,102311.59
2023-02-09T01:38:55.901Z,102301.56
2023-02-09T01:41:23.711Z,102304.25
2023-02-09T01:44:28.092Z,102297.81
2023-02-09T01:46:55.668Z,102298.72
2023-02-09T01:49:28.525Z,102304.88
2023-02-09T01:52:11.324Z,102305.13
2023-02-09T01:55:03.526Z,102303.78
2023-02-09T01:57:38.039Z,102295.38
2023-02-09T02:00:14.808Z,102293.00
2023-02-09T02:03:12.924Z,102286.13
2023-02-09T02:05:46.278Z,102285.22
2023-02-09T02:08:32.346Z,102285.22
2023-02-09T02:10:59.927Z,102283.59
2023-02-09T02:13:27.466Z,102284.78
2023-02-09T02:16:32.532Z,102283.41
2023-02-09T02:19:15.182Z,102285.22
2023-02-09T02:21:42.558Z,102285.53
2023-02-09T02:24:31.425Z,102281.31
2023-02-09T02:27:06.601Z,102275.94
2023-02-09T02:30:03.443Z,102285.38
2023-02-09T02:33:00.542Z,102273.88
2023-02-09T02:35:39.333Z,102274.47
2023-02-09T02:38:19.457Z,102268.63
2023-02-09T02:40:56.863Z,102269.38
2023-02-09T02:43:39.215Z,102270.72
2023-02-09T02:46:15.796Z,102271.47
2023-02-09T02:48:55.358Z,102273.75
2023-02-09T02:51:37.165Z,102270.31
2023-02-09T02:54:11.747Z,102276.53
2023-02-09T02:56:45.468Z,102280.13
2023-02-09T02:59:19.236Z,102276.13
2023-02-09T03:01:53.882Z,102275.63
2023-02-09T03:04:21.534Z,102271.16
2023-02-09T03:06:49.675Z,102270.56
2023-02-09T03:09:19.009Z,102263.97
2023-02-09T03:11:49.952Z,102275.81
2023-02-09T03:14:42.359Z,102275.97
2023-02-09T03:17:51.102Z,102258.72
2023-02-09T03:20:44.386Z,102250.22
2023-02-09T03:23:36.283Z,102254.84
2023-02-09T03:26:13.667Z,102246.59
2023-02-09T03:28:43.501Z,102241.81
2023-02-09T03:31:11.656Z,102243.59
2023-02-09T03:33:40.179Z,102246.44
2023-02-09T03:36:14.848Z,102238.94
2023-02-09T03:38:45.396Z,102240.00
2023-02-09T03:41:13.257Z,102241.78
2023-02-09T03:43:59.109Z,102242.06
2023-02-09T03:46:26.362Z,102252.25
2023-02-09T03:48:53.817Z,102254.22
2023-02-09T03:51:21.304Z,102247.59
2023-02-09T03:53:48.444Z,102254.81
2023-02-09T03:56:15.726Z,102250.75
2023-02-09T03:58:43.169Z,102250.13
2023-02-09T04:01:11.516Z,102253.59
2023-02-09T04:03:40.167Z,102248.66
2023-02-09T04:06:08.009Z,102256.41
2023-02-09T04:08:35.967Z,102256.56
2023-02-09T04:11:03.429Z,102265.97
2023-02-09T04:13:31.064Z,102257.47
2023-02-09T04:15:58.765Z,102254.19
2023-02-09T04:18:26.584Z,102256.09
2023-02-09T04:20:53.825Z,102254.56
2023-02-09T04:23:22.434Z,102254.88
2023-02-09T04:25:50.315Z,102254.28
2023-02-09T04:28:19.452Z,102250.22
2023-02-09T04:30:53.691Z,102246.19
2023-02-09T04:33:24.474Z,102243.16
2023-02-09T04:35:52.997Z,102238.94
2023-02-09T04:38:22.103Z,102241.66
2023-02-09T04:40:54.122Z,102235.06
2023-02-09T04:43:22.137Z,102229.50
2023-02-09T04:45:49.437Z,102226.63
2023-02-09T04:48:19.584Z,102224.81
2023-02-09T04:50:47.380Z,102212.34
2023-02-09T04:53:19.468Z,102218.28
2023-02-09T04:55:48.528Z,102209.69
2023-02-09T04:58:37.827Z,102206.91
2023-02-09T05:01:06.333Z,102214.50
2023-02-09T05:03:37.724Z,102210.50
2023-02-09T05:06:06.824Z,102210.94
2023-02-09T05:08:34.528Z,102212.88
2023-02-09T05:11:02.077Z,102202.03
2023-02-09T05:13:29.901Z,102213.25
2023-02-09T05:15:57.541Z,102208.44
2023-02-09T05:18:25.896Z,102214.75
2023-02-09T05:20:53.591Z,102219.19
2023-02-09T05:23:20.897Z,102215.25
2023-02-09T05:25:49.006Z,102225.13
2023-02-09T05:28:16.962Z,102211.88
2023-02-09T05:30:45.071Z,102211.69
2023-02-09T05:33:12.812Z,102201.38
2023-02-09T05:35:41.163Z,102191.88
2023-02-09T05:38:08.740Z,102193.09
2023-02-09T05:40:36.116Z,102189.31
2023-02-09T05:43:03.741Z,102188.09
2023-02-09T05:45:31.223Z,102186.72
2023-02-09T05:47:58.944Z,102188.25
2023-02-09T05:50:26.787Z,102187.88
2023-02-09T05:52:59.514Z,102197.63
2023-02-09T05:55:27.775Z,102197.25
2023-02-09T05:57:55.373Z,102199.53
2023-02-09T06:00:25.277Z,102190.72
2023-02-09T06:02:52.525Z,102189.91
2023-02-09T06:05:21.293Z,102186.69
2023-02-09T06:07:49.351Z,102179.09
2023-02-09T06:10:18.590Z,102185.97
2023-02-09T06:12:46.654Z,102175.53
2023-02-09T06:15:16.813Z,102176.50
2023-02-09T06:17:44.556Z,102183.59
2023-02-09T06:20:13.173Z,102185.97
2023-02-09T06:22:40.623Z,102185.47
2023-02-09T06:25:08.522Z,102186.88
2023-02-09T06:27:36.888Z,102179.53
2023-02-09T06:30:06.137Z,102180.25
2023-02-09T06:32:33.813Z,102183.47
2023-02-09T06:35:01.685Z,102177.22
2023-02-09T06:37:29.672Z,102170.91
2023-02-09T06:39:57.115Z,102177.75
2023-02-09T06:42:24.833Z,102182.06
2023-02-09T06:44:52.663Z,102177.00
2023-02-09T06:47:20.581Z,102178.09
2023-02-09T06:49:48.630Z,102172.91
2023-02-09T06:52:16.521Z,102175.41
2023-02-09T06:54:45.680Z,102176.97
2023-02-09T06:57:14.119Z,102172.69
2023-02-09T06:59:42.678Z,102181.22
2023-02-09T07:02:12.696Z,102170.19
2023-02-09T07:04:40.675Z,102170.34
2023-02-09T07:07:08.578Z,102166.28
2023-02-09T07:09:36.520Z,102156.16
2023-02-09T07:12:04.559Z,102158.78
2023-02-09T07:14:31.955Z,102162.09
2023-02-09T07:16:59.474Z,102162.91
2023-02-09T07:19:27.744Z,102157.47
2023-02-09T07:21:55.661Z,102163.97
2023-02-09T07:24:23.287Z,102150.25
2023-02-09T07:26:56.024Z,102153.16
2023-02-09T07:29:25.216Z,102143.00
2023-02-09T07:31:53.195Z,102148.25
2023-02-09T07:34:21.593Z,102140.31
2023-02-09T07:36:49.230Z,102140.72
2023-02-09T07:39:16.791Z,102141.19
2023-02-09T07:41:44.646Z,102141.56
2023-02-09T07:44:12.258Z,102136.19
2023-02-09T07:46:39.971Z,102131.44
2023-02-09T07:49:07.961Z,102129.53
2023-02-09T07:51:35.874Z,102123.63
2023-02-09T07:54:04.398Z,102127.53
2023-02-09T07:56:37.709Z,102130.13
2023-02-09T07:59:04.947Z,102132.97
2023-02-09T08:01:33.926Z,102126.34
2023-02-09T08:04:01.586Z,102133.75
2023-02-09T08:06:45.316Z,102123.69
2023-02-09T08:09:17.278Z,102123.03
2023-02-09T08:11:50.435Z,102127.03
2023-02-09T08:14:23.383Z,102130.00
2023-02-09T08:17:18.488Z,102136.59
2023-02-09T08:19:52.557Z,102131.03
2023-02-09T08:22:22.796Z,102126.25
2023-02-09T08:24:51.949Z,102131.91
2023-02-09T08:27:20.058Z,102130.75
2023-02-09T08:29:49.092Z,102132.34
2023-02-09T08:32:16.963Z,102121.66
2023-02-09T08:34:44.930Z,102123.09
2023-02-09T08:37:14.613Z,102126.50
2023-02-09T08:39:42.250Z,102129.84
2023-02-09T08:42:10.281Z,102116.97
2023-02-09T08:44:37.882Z,102120.69
2023-02-09T08:47:05.856Z,102118.06
2023-02-09T08:49:34.321Z,102119.06
2023-02-09T08:52:02.078Z,102115.72
2023-02-09T08:54:29.520Z,102110.78
2023-02-09T08:57:00.621Z,102114.53
2023-02-09T08:59:29.309Z,102109.44
2023-02-09T09:01:58.159Z,102109.97
2023-02-09T09:04:26.374Z,102111.53
2023-02-09T09:06:55.444Z,102099.09
2023-02-09T09:09:23.319Z,102093.66
2023-02-09T09:11:51.259Z,102079.31
2023-02-09T09:14:19.220Z,102088.50
2023-02-09T09:16:47.429Z,102080.75
2023-02-09T09:19:15.787Z,102073.75
2023-02-09T09:21:44.056Z,102071.13
2023-02-09T09:24:12.170Z,102065.81
2023-02-09T09:26:40.072Z,102056.13
2023-02-09T09:29:07.602Z,102054.50
2023-02-09T09:31:35.567Z,102047.63
2023-02-09T09:34:03.676Z,102043.44
2023-02-09T09:36:31.287Z,102036.63
2023-02-09T09:38:59.448Z,102034.94
2023-02-09T09:41:36.968Z,102031.44
2023-02-09T09:44:24.293Z,102037.59
2023-02-09T09:46:55.162Z,102038.38
2023-02-09T09:49:29.393Z,102031.41
2023-02-09T09:52:13.744Z,102029.63
2023-02-09T09:54:42.296Z,102016.44
2023-02-09T09:57:39.127Z,102024.38
2023-02-09T10:00:19.772Z,102013.84
2023-02-09T10:02:47.591Z,102008.59
2023-02-09T10:05:28.492Z,102001.69
2023-02-09T10:08:01.992Z,101988.75
2023-02-09T10:10:34.442Z,101997.78
2023-02-09T10:13:08.500Z,101990.00
2023-02-09T10:15:37.231Z,101983.78
2023-02-09T10:18:14.069Z,101981.03
2023-02-09T10:20:54.627Z,101963.03
2023-02-09T10:23:28.305Z,101972.28
2023-02-09T10:26:10.019Z,101961.81
2023-02-09T10:28:49.811Z,101955.09
2023-02-09T10:31:34.350Z,101946.88
2023-02-09T10:34:14.691Z,101944.75
2023-02-09T10:36:56.118Z,101927.47
2023-02-09T10:39:31.866Z,101926.31
2023-02-09T10:42:30.592Z,101911.44
2023-02-09T10:45:06.224Z,101919.47
2023-02-09T10:47:33.809Z,101909.78
2023-02-09T10:50:07.284Z,101900.56
2023-02-09T10:52:39.985Z,101897.69
2023-02-09T10:55:21.661Z,101906.78
2023-02-09T10:57:49.411Z,101902.97
2023-02-09T11:00:17.290Z,101892.78
2023-02-09T11:02:55.297Z,101889.34
2023-02-09T11:05:22.838Z,101886.59
2023-02-09T11:07:59.979Z,101876.59
2023-02-09T11:10:33.274Z,101876.41
2023-02-09T11:13:01.284Z,101871.50
2023-02-09T11:15:36.640Z,101866.41
2023-02-09T11:18:18.285Z,101864.34
2023-02-09T11:21:19.475Z,101866.09
2023-02-09T11:23:53.350Z,101850.06
2023-02-09T11:26:29.806Z,101847.63
2023-02-09T11:29:13.366Z,101844.78
2023-02-09T11:32:13.588Z,101842.38
2023-02-09T11:35:05.226Z,101843.09
2023-02-09T11:37:51.082Z,101830.59
2023-02-09T11:40:42.451Z,101838.19
2023-02-09T11:43:31.755Z,101846.78
2023-02-09T11:46:11.527Z,101850.56
2023-02-09T11:48:47.614Z,101842.03
2023-02-09T11:51:25.526Z,101840.41
2023-02-09T11:54:15.191Z,101842.94
2023-02-09T11:56:51.135Z,101837.19
2023-02-09T11:59:33.405Z,101830.25
2023-02-09T12:02:23.812Z,101821.22
2023-02-09T12:04:59.109Z,101820.16
2023-02-09T12:07:57.799Z,101827.88
2023-02-09T12:10:40.272Z,101820.50
2023-02-09T12:13:44.197Z,101818.69
2023-02-09T12:16:20.883Z,101816.50
2023-02-09T12:18:48.881Z,101812.34
2023-02-09T12:21:28.783Z,101800.94
2023-02-09T12:23:56.517Z,101798.34
2023-02-09T12:26:43.986Z,101805.34
2023-02-09T12:29:23.773Z,101804.75
2023-02-09T12:32:09.445Z,101796.41
2023-02-09T12:34:52.932Z,101802.22
2023-02-09T12:37:29.610Z,101803.44
2023-02-09T12:40:11.995Z,101804.50
2023-02-09T12:42:46.815Z,101802.78
2023-02-09T12:45:40.792Z,101798.78
2023-02-09T12:48:08.660Z,101798.16
2023-02-09T12:50:55.401Z,101814.00
2023-02-09T12:53:23.367Z,101809.47
2023-02-09T12:56:13.264Z,101813.63
2023-02-09T12:58:57.805Z,101808.91
2023-02-09T13:02:03.726Z,101813.72
2023-02-09T13:04:56.115Z,101812.28
2023-02-09T13:07:41.705Z,101815.22
2023-02-09T13:10:21.883Z,101814.63
2023-02-09T13:13:13.433Z,101818.38
2023-02-09T13:15:53.275Z,101814.06
2023-02-09T13:18:24.376Z,101807.19
2023-02-09T13:21:03.873Z,101809.38
2023-02-09T13:23:49.881Z,101815.81
2023-02-09T13:26:23.771Z,101818.63
2023-02-09T13:29:21.900Z,101812.00
2023-02-09T13:32:17.103Z,101811.25
2023-02-09T13:34:54.560Z,101812.88
2023-02-09T13:37:27.857Z,101809.84
2023-02-09T13:40:04.537Z,101809.41
2023-02-09T13:42:36.519Z,101811.47
2023-02-09T13:45:18.476Z,101797.72
2023-02-09T13:47:46.489Z,101801.69
2023-02-09T13:50:17.149Z,101803.16
2023-02-09T13:52:45.464Z,101795.88
2023-02-09T13:55:18.317Z,101790.50
2023-02-09T13:58:00.881Z,101794.34
2023-02-09T14:00:43.126Z,101794.06
2023-02-09T14:03:47.018Z,101787.50
2023-02-09T14:06:37.648Z,101777.69
2023-02-09T14:09:12.945Z,101775.75
2023-02-09T14:12:02.360Z,101775.66
2023-02-09T14:15:00.197Z,101774.47
2023-02-09T14:17:31.097Z,101773.47
2023-02-09T14:20:00.210Z,101775.00
2023-02-09T14:22:32.854Z,101767.09
2023-02-09T14:25:00.773Z,101771.03
2023-02-09T14:27:33.568Z,101776.06
2023-02-09T14:30:01.688Z,101774.97
2023-02-09T14:32:35.168Z,101774.47
2023-02-09T14:35:29.457Z,101774.13
2023-02-09T14:38:03.482Z,101773.72
2023-02-09T14:40:34.621Z,101762.69
2023-02-09T14:43:12.142Z,101761.22
2023-02-09T14:45:43.659Z,101761.31
2023-02-09T14:48:29.223Z,101750.78
2023-02-09T14:51:03.280Z,101761.91
2023-02-09T14:53:33.598Z,101764.44
2023-02-09T14:56:00.735Z,101763.69
2023-02-09T14:58:31.741Z,101768.13
2023-02-09T15:01:01.319Z,101763.78
2023-02-09T15:03:29.625Z,101768.19
2023-02-09T15:06:03.576Z,101762.22
2023-02-09T15:08:35.484Z,101766.66
2023-02-09T15:11:28.879Z,101768.31
2023-02-09T15:14:01.799Z,101776.56
2023-02-09T15:16:29.518Z,101767.97
2023-02-09T15:18:57.426Z,101767.22
2023-02-09T15:21:25.113Z,101771.59
2023-02-09T15:23:52.493Z,101770.78
2023-02-09T15:26:27.036Z,101778.59
2023-02-09T15:28:54.712Z,101775.13
2023-02-09T15:31:22.633Z,101778.78
2023-02-09T15:33:50.345Z,101777.25
2023-02-09T15:36:20.352Z,101775.69
2023-02-09T15:38:48.200Z,101777.16
2023-02-09T15:41:36.062Z,101772.50
2023-02-09T15:44:39.408Z,101769.56
2023-02-09T15:47:25.550Z,101769.88
2023-02-09T15:49:52.926Z,101766.72
2023-02-09T15:52:20.357Z,101762.84
2023-02-09T15:54:51.659Z,101773.50
2023-02-09T15:57:19.409Z,101769.66
2023-02-09T15:59:48.409Z,101768.44
2023-02-09T16:02:17.322Z,101769.69
2023-02-09T16:04:44.580Z,101759.91
2023-02-09T16:07:20.833Z,101760.22
2023-02-09T16:09:48.531Z,101758.78
2023-02-09T16:12:15.901Z,101761.09
2023-02-09T16:14:43.224Z,101758.00
2023-02-09T16:17:10.524Z,101755.06
2023-02-09T16:19:37.928Z,101751.16
2023-02-09T16:22:06.961Z,101754.59
2023-02-09T16:24:44.280Z,101755.94
2023-02-09T16:27:31.992Z,101754.69
2023-02-09T16:29:59.670Z,101757.81
2023-02-09T16:32:28.831Z,101748.13
2023-02-09T16:35:07.427Z,101749.53
2023-02-09T16:37:39.001Z,101746.50
2023-02-09T16:40:15.389Z,101746.97
2023-02-09T16:42:44.402Z,101750.22
2023-02-09T16:45:17.239Z,101747.47
2023-02-09T16:47:50.175Z,101747.19
2023-02-09T16:50:27.785Z,101748.69
2023-02-09T16:52:57.355Z,101750.09
2023-02-09T16:55:28.709Z,101742.19
2023-02-09T16:57:57.950Z,101737.06
2023-02-09T17:00:30.332Z,101738.56
2023-02-09T17:02:58.932Z,101729.56
2023-02-09T17:05:29.641Z,101729.00
2023-02-09T17:08:02.717Z,101730.28
2023-02-09T17:10:32.780Z,101728.34
2023-02-09T17:13:05.036Z,101722.81
2023-02-09T17:15:39.701Z,101733.63
2023-02-09T17:18:09.927Z,101727.91
2023-02-09T17:20:42.788Z,101735.44
2023-02-09T17:23:15.296Z,101737.63
2023-02-09T17:25:42.987Z,101738.91
2023-02-09T17:28:10.638Z,101733.38
2023-02-09T17:30:39.307Z,101736.38
2023-02-09T17:33:11.143Z,101735.88
2023-02-09T17:38:28.214Z,101732.81
2023-02-09T17:40:57.599Z,101721.56
2023-02-09T17:43:25.499Z,101732.50
2023-02-09T17:45:53.422Z,101726.28
2023-02-09T17:48:22.642Z,101731.31
2023-02-09T17:50:53.030Z,101718.22
2023-02-09T17:53:25.353Z,101718.13
2023-02-09T17:55:54.232Z,101723.06
2023-02-09T17:58:24.832Z,101714.84
2023-02-09T18:00:53.559Z,101713.78
2023-02-09T18:03:23.759Z,101703.28
2023-02-09T18:06:01.953Z,101702.31
2023-02-09T18:08:29.425Z,101702.00
2023-02-09T18:10:58.993Z,101701.91
2023-02-09T18:13:27.450Z,101707.81
2023-02-09T18:15:55.660Z,101708.63
2023-02-09T18:18:24.375Z,101710.28
2023-02-09T18:20:52.085Z,101711.88
2023-02-09T18:23:23.636Z,101711.78
2023-02-09T18:25:51.363Z,101704.84
2023-02-09T18:28:19.110Z,101703.66
2023-02-09T18:30:47.777Z,101708.22
2023-02-09T18:33:15.983Z,101707.16
2023-02-09T18:35:47.456Z,101704.28
2023-02-09T18:38:17.698Z,101701.50
2023-02-09T18:40:45.519Z,101693.59
2023-02-09T18:43:14.958Z,101697.84
2023-02-09T18:45:43.442Z,101696.53
2023-02-09T18:48:12.416Z,101700.38
2023-02-09T18:50:40.624Z,101698.19
2023-02-09T18:53:08.465Z,101696.91
2023-02-09T18:55:35.900Z,101692.91
2023-02-09T18:58:05.919Z,101693.50
2023-02-09T19:00:33.676Z,101694.97
2023-02-09T19:03:01.566Z,101688.81
2023-02-09T19:05:34.828Z,101697.44
2023-02-09T19:08:02.798Z,101689.53
2023-02-09T19:10:33.319Z,101686.88
2023-02-09T19:13:04.650Z,101682.50
2023-02-09T19:15:34.503Z,101677.16
2023-02-09T19:18:02.688Z,101685.78
2023-02-09T19:20:32.219Z,101675.19
2023-02-09T19:22:59.312Z,101675.00
2023-02-09T19:25:28.610Z,101675.44
2023-02-09T19:27:56.183Z,101681.94
2023-02-09T19:30:29.023Z,101673.03
2023-02-09T19:33:02.405Z,101677.84
2023-02-09T19:35:30.371Z,101676.88
2023-02-09T19:37:58.972Z,101669.06
2023-02-09T19:40:30.414Z,101663.84
2023-02-09T19:42:58.035Z,101664.50
2023-02-09T19:45:25.906Z,101661.06
2023-02-09T19:47:53.355Z,101665.50
2023-02-09T19:50:20.697Z,101659.59
2023-02-09T19:52:49.509Z,101656.94
2023-02-09T19:55:16.732Z,101656.81
2023-02-09T19:57:44.872Z,101652.00
2023-02-09T20:00:15.818Z,101651.34
2023-02-09T20:02:43.373Z,101648.09
2023-02-09T20:05:12.671Z,101644.63
2023-02-09T20:07:40.208Z,101634.19
2023-02-09T20:10:07.886Z,101634.19
2023-02-09T20:12:35.613Z,101631.41
2023-02-09T20:15:03.148Z,101626.06
2023-02-09T20:17:30.746Z,101623.41
2023-02-09T20:19:58.144Z,101618.28
2023-02-09T20:22:25.405Z,101618.97
2023-02-09T20:24:53.030Z,101616.09
2023-02-09T20:27:21.287Z,101610.44
2023-02-09T20:29:48.636Z,101608.22
2023-02-09T20:32:16.412Z,101613.94
2023-02-09T20:34:43.686Z,101605.81
2023-02-09T20:37:12.363Z,101607.06
2023-02-09T20:39:39.616Z,101605.88
2023-02-09T20:42:25.449Z,101596.97
2023-02-09T20:45:11.666Z,101600.91
2023-02-09T20:47:38.935Z,101592.22
2023-02-09T20:50:06.786Z,101595.22
2023-02-09T20:52:34.935Z,101588.91
2023-02-09T20:55:02.210Z,101594.72
2023-02-09T20:57:29.786Z,101587.69
2023-02-09T21:00:00.711Z,101592.72
2023-02-09T21:02:28.236Z,101591.59
2023-02-09T21:04:57.289Z,101593.19
2023-02-09T21:07:25.648Z,101594.72
2023-02-09T21:09:54.984Z,101588.59
2023-02-09T21:12:22.752Z,101593.50
2023-02-09T21:14:51.200Z,101586.59
2023-02-09T21:17:21.994Z,101586.72
2023-02-09T21:19:49.386Z,101599.38
2023-02-09T21:22:17.209Z,101589.25
2023-02-09T21:24:45.529Z,101586.59
2023-02-09T21:27:13.996Z,101584.38
2023-02-09T21:29:41.441Z,101579.34
2023-02-09T21:32:09.151Z,101570.34
2023-02-09T21:34:36.761Z,101571.25
2023-02-09T21:37:08.035Z,101568.69
2023-02-09T21:39:35.540Z,101573.44
2023-02-09T21:42:21.136Z,101568.31
2023-02-09T21:44:48.516Z,101564.88
2023-02-09T21:47:15.809Z,101555.31
2023-02-09T21:49:43.484Z,101550.88
2023-02-09T21:52:10.758Z,101560.78
2023-02-09T21:54:40.595Z,101552.69
2023-02-09T21:57:07.874Z,101544.44
2023-02-09T21:59:34.884Z,101543.25
2023-02-09T22:02:02.274Z,101544.59
2023-02-09T22:04:29.778Z,101540.81
2023-02-09T22:06:57.526Z,101536.25
2023-02-09T22:09:25.330Z,101545.59
2023-02-09T22:11:52.695Z,101537.03
2023-02-09T22:14:20.214Z,101533.47
2023-02-09T22:16:48.028Z,101531.50
2023-02-09T22:19:15.219Z,101526.16
2023-02-09T22:21:42.698Z,101523.50
2023-02-09T22:24:14.122Z,101530.94
2023-02-09T22:26:41.499Z,101523.81
2023-02-09T22:29:09.697Z,101519.28
2023-02-09T22:31:37.405Z,101518.94
2023-02-09T22:34:06.366Z,101516.94
2023-02-09T22:36:34.738Z,101509.03
2023-02-09T22:39:04.070Z,101514.72
2023-02-09T22:41:32.253Z,101505.03
2023-02-09T22:44:04.666Z,101508.16
2023-02-09T22:46:33.697Z,101503.72
2023-02-09T22:49:05.852Z,101501.47
2023-02-09T22:51:34.707Z,101497.38
2023-02-09T22:54:02.821Z,101489.81
2023-02-09T22:56:30.894Z,101489.81
2023-02-09T22:59:00.636Z,101497.59
2023-02-09T23:01:29.480Z,101496.38
2023-02-09T23:03:57.379Z,101501.03
2023-02-09T23:06:27.698Z,101495.16
2023-02-09T23:08:57.765Z,101489.59
2023-02-09T23:11:26.258Z,101482.94
2023-02-09T23:14:08.584Z,101482.25
2023-02-09T23:16:37.823Z,101480.59
2023-02-09T23:19:08.700Z,101477.13
2023-02-09T23:21:39.434Z,101472.59
2023-02-09T23:24:07.652Z,101471.59
2023-02-09T23:26:36.023Z,101466.50
2023-02-09T23:29:07.948Z,101464.81
2023-02-09T23:31:36.597Z,101459.47
2023-02-09T23:34:04.197Z,101457.56
2023-02-09T23:36:34.202Z,101459.16
2023-02-09T23:39:05.188Z,101458.59
2023-02-09T23:41:32.881Z,101459.59
2023-02-09T23:44:00.772Z,101457.16
2023-02-09T23:46:29.241Z,101447.69
2023-02-09T23:48:56.822Z,101451.03
2023-02-09T23:51:28.631Z,101450.03
2023-02-09T23:53:59.505Z,101445.59
2023-02-09T23:56:27.431Z,101436.91
2023-02-09T23:58:55.993Z,101440.25
